<?xml version="1.0" encoding="UTF-8" standalone="no" ?>
<gpx xmlns="http://www.topografix.com/GPX/1/1" xmlns:xsi="http://www.w3.org/2001/XMLSchema-instance" xsi:schemaLocation="http://www.topografix.com/GPX/1/1 http://www.topografix.com/GPX/1/1/gpx.xsd" version="1.1" creator="VisuGPX - https://www.visugpx.com">
  <metadata>
    <name>Eguilles 17/11/2019 à 10:38</name>
    <desc><![CDATA[Boucle de 13.7 km, dénivelé cumulé 170 m]]></desc>
  </metadata>
  <wpt lat="43.57642" lon="5.31497">
    <ele>302</ele>
    <name><![CDATA[Bories]]></name>
  </wpt>
  <wpt lat="43.57308" lon="5.35331">
    <ele>284</ele>
    <name><![CDATA[Cimetière ]]></name>
  </wpt>
  <trk>
    <name><![CDATA[Randonnée du 17/11/2019 à 10:38]]></name>
    <trkseg>
      <trkpt lat="43.57326" lon="5.35319">
        <ele>284</ele>
        <time>2019-11-17T10:38:08+01:00</time>
      </trkpt>
      <trkpt lat="43.57302" lon="5.35324">
        <ele>284</ele>
        <time>2019-11-17T10:38:59+01:00</time>
      </trkpt>
      <trkpt lat="43.5728" lon="5.35329">
        <ele>284</ele>
        <time>2019-11-17T10:39:16+01:00</time>
      </trkpt>
      <trkpt lat="43.57257" lon="5.35334">
        <ele>286</ele>
        <time>2019-11-17T10:39:36+01:00</time>
      </trkpt>
      <trkpt lat="43.57234" lon="5.35337">
        <ele>286</ele>
        <time>2019-11-17T10:39:56+01:00</time>
      </trkpt>
      <trkpt lat="43.57212" lon="5.35335">
        <ele>286</ele>
        <time>2019-11-17T10:40:13+01:00</time>
      </trkpt>
      <trkpt lat="43.57188" lon="5.35336">
        <ele>285</ele>
        <time>2019-11-17T10:40:32+01:00</time>
      </trkpt>
      <trkpt lat="43.57165" lon="5.35336">
        <ele>284</ele>
        <time>2019-11-17T10:40:54+01:00</time>
      </trkpt>
      <trkpt lat="43.57143" lon="5.35335">
        <ele>285</ele>
        <time>2019-11-17T10:41:14+01:00</time>
      </trkpt>
      <trkpt lat="43.5712" lon="5.35335">
        <ele>285</ele>
        <time>2019-11-17T10:41:34+01:00</time>
      </trkpt>
      <trkpt lat="43.57097" lon="5.35333">
        <ele>284</ele>
        <time>2019-11-17T10:42:21+01:00</time>
      </trkpt>
      <trkpt lat="43.57075" lon="5.3533">
        <ele>282</ele>
        <time>2019-11-17T10:42:42+01:00</time>
      </trkpt>
      <trkpt lat="43.57052" lon="5.35328">
        <ele>280</ele>
        <time>2019-11-17T10:43:00+01:00</time>
      </trkpt>
      <trkpt lat="43.57029" lon="5.35337">
        <ele>281</ele>
        <time>2019-11-17T10:43:27+01:00</time>
      </trkpt>
      <trkpt lat="43.57007" lon="5.35331">
        <ele>277</ele>
        <time>2019-11-17T10:43:48+01:00</time>
      </trkpt>
      <trkpt lat="43.57003" lon="5.353">
        <ele>277</ele>
        <time>2019-11-17T10:44:23+01:00</time>
      </trkpt>
      <trkpt lat="43.57015" lon="5.35274">
        <ele>276</ele>
        <time>2019-11-17T10:44:43+01:00</time>
      </trkpt>
      <trkpt lat="43.57027" lon="5.35246">
        <ele>272</ele>
        <time>2019-11-17T10:44:59+01:00</time>
      </trkpt>
      <trkpt lat="43.5704" lon="5.35219">
        <ele>273</ele>
        <time>2019-11-17T10:45:22+01:00</time>
      </trkpt>
      <trkpt lat="43.5705" lon="5.35189">
        <ele>273</ele>
        <time>2019-11-17T10:45:43+01:00</time>
      </trkpt>
      <trkpt lat="43.57062" lon="5.35162">
        <ele>271</ele>
        <time>2019-11-17T10:46:10+01:00</time>
      </trkpt>
      <trkpt lat="43.57069" lon="5.35132">
        <ele>269</ele>
        <time>2019-11-17T10:46:31+01:00</time>
      </trkpt>
      <trkpt lat="43.57079" lon="5.35103">
        <ele>269</ele>
        <time>2019-11-17T10:46:51+01:00</time>
      </trkpt>
      <trkpt lat="43.5709" lon="5.35075">
        <ele>271</ele>
        <time>2019-11-17T10:47:14+01:00</time>
      </trkpt>
      <trkpt lat="43.57104" lon="5.35051">
        <ele>271</ele>
        <time>2019-11-17T10:47:33+01:00</time>
      </trkpt>
      <trkpt lat="43.57118" lon="5.35025">
        <ele>271</ele>
        <time>2019-11-17T10:47:51+01:00</time>
      </trkpt>
      <trkpt lat="43.5713" lon="5.34998">
        <ele>269</ele>
        <time>2019-11-17T10:48:11+01:00</time>
      </trkpt>
      <trkpt lat="43.5714" lon="5.34969">
        <ele>269</ele>
        <time>2019-11-17T10:49:25+01:00</time>
      </trkpt>
      <trkpt lat="43.57149" lon="5.34939">
        <ele>269</ele>
        <time>2019-11-17T10:49:47+01:00</time>
      </trkpt>
      <trkpt lat="43.57163" lon="5.34914">
        <ele>271</ele>
        <time>2019-11-17T10:50:47+01:00</time>
      </trkpt>
      <trkpt lat="43.57172" lon="5.34884">
        <ele>274</ele>
        <time>2019-11-17T10:51:11+01:00</time>
      </trkpt>
      <trkpt lat="43.57181" lon="5.34856">
        <ele>273</ele>
        <time>2019-11-17T10:51:30+01:00</time>
      </trkpt>
      <trkpt lat="43.57191" lon="5.34827">
        <ele>272</ele>
        <time>2019-11-17T10:51:49+01:00</time>
      </trkpt>
      <trkpt lat="43.57199" lon="5.34797">
        <ele>272</ele>
        <time>2019-11-17T10:52:11+01:00</time>
      </trkpt>
      <trkpt lat="43.57207" lon="5.34766">
        <ele>272</ele>
        <time>2019-11-17T10:52:31+01:00</time>
      </trkpt>
      <trkpt lat="43.57212" lon="5.34736">
        <ele>270</ele>
        <time>2019-11-17T10:52:51+01:00</time>
      </trkpt>
      <trkpt lat="43.57216" lon="5.34705">
        <ele>270</ele>
        <time>2019-11-17T10:53:11+01:00</time>
      </trkpt>
      <trkpt lat="43.57223" lon="5.34674">
        <ele>270</ele>
        <time>2019-11-17T10:53:31+01:00</time>
      </trkpt>
      <trkpt lat="43.57245" lon="5.34668">
        <ele>271</ele>
        <time>2019-11-17T10:53:52+01:00</time>
      </trkpt>
      <trkpt lat="43.57268" lon="5.3466">
        <ele>267</ele>
        <time>2019-11-17T10:54:12+01:00</time>
      </trkpt>
      <trkpt lat="43.57288" lon="5.34643">
        <ele>264</ele>
        <time>2019-11-17T10:54:30+01:00</time>
      </trkpt>
      <trkpt lat="43.57307" lon="5.34626">
        <ele>263</ele>
        <time>2019-11-17T10:54:48+01:00</time>
      </trkpt>
      <trkpt lat="43.57327" lon="5.3461">
        <ele>261</ele>
        <time>2019-11-17T10:55:17+01:00</time>
      </trkpt>
      <trkpt lat="43.57346" lon="5.34593">
        <ele>257</ele>
        <time>2019-11-17T10:55:49+01:00</time>
      </trkpt>
      <trkpt lat="43.57365" lon="5.34576">
        <ele>255</ele>
        <time>2019-11-17T10:56:19+01:00</time>
      </trkpt>
      <trkpt lat="43.57381" lon="5.34553">
        <ele>255</ele>
        <time>2019-11-17T10:56:42+01:00</time>
      </trkpt>
      <trkpt lat="43.57389" lon="5.34523">
        <ele>255</ele>
        <time>2019-11-17T10:57:04+01:00</time>
      </trkpt>
      <trkpt lat="43.57396" lon="5.34494">
        <ele>255</ele>
        <time>2019-11-17T10:57:22+01:00</time>
      </trkpt>
      <trkpt lat="43.57402" lon="5.34463">
        <ele>255</ele>
        <time>2019-11-17T10:57:43+01:00</time>
      </trkpt>
      <trkpt lat="43.57409" lon="5.34432">
        <ele>256</ele>
        <time>2019-11-17T10:58:00+01:00</time>
      </trkpt>
      <trkpt lat="43.57415" lon="5.34401">
        <ele>256</ele>
        <time>2019-11-17T10:58:22+01:00</time>
      </trkpt>
      <trkpt lat="43.57416" lon="5.34369">
        <ele>255</ele>
        <time>2019-11-17T10:58:38+01:00</time>
      </trkpt>
      <trkpt lat="43.57416" lon="5.34337">
        <ele>257</ele>
        <time>2019-11-17T10:59:00+01:00</time>
      </trkpt>
      <trkpt lat="43.57423" lon="5.34307">
        <ele>259</ele>
        <time>2019-11-17T10:59:22+01:00</time>
      </trkpt>
      <trkpt lat="43.57428" lon="5.34276">
        <ele>259</ele>
        <time>2019-11-17T10:59:42+01:00</time>
      </trkpt>
      <trkpt lat="43.57431" lon="5.34245">
        <ele>259</ele>
        <time>2019-11-17T11:00:03+01:00</time>
      </trkpt>
      <trkpt lat="43.57434" lon="5.34213">
        <ele>260</ele>
        <time>2019-11-17T11:00:21+01:00</time>
      </trkpt>
      <trkpt lat="43.57445" lon="5.34185">
        <ele>261</ele>
        <time>2019-11-17T11:00:43+01:00</time>
      </trkpt>
      <trkpt lat="43.57452" lon="5.34154">
        <ele>261</ele>
        <time>2019-11-17T11:01:00+01:00</time>
      </trkpt>
      <trkpt lat="43.57456" lon="5.34123">
        <ele>262</ele>
        <time>2019-11-17T11:01:19+01:00</time>
      </trkpt>
      <trkpt lat="43.5746" lon="5.34092">
        <ele>262</ele>
        <time>2019-11-17T11:01:36+01:00</time>
      </trkpt>
      <trkpt lat="43.57452" lon="5.34063">
        <ele>262</ele>
        <time>2019-11-17T11:01:55+01:00</time>
      </trkpt>
      <trkpt lat="43.57445" lon="5.34033">
        <ele>261</ele>
        <time>2019-11-17T11:02:13+01:00</time>
      </trkpt>
      <trkpt lat="43.57443" lon="5.34001">
        <ele>261</ele>
        <time>2019-11-17T11:02:35+01:00</time>
      </trkpt>
      <trkpt lat="43.57443" lon="5.3397">
        <ele>261</ele>
        <time>2019-11-17T11:02:59+01:00</time>
      </trkpt>
      <trkpt lat="43.57445" lon="5.33939">
        <ele>261</ele>
        <time>2019-11-17T11:03:24+01:00</time>
      </trkpt>
      <trkpt lat="43.5745" lon="5.33908">
        <ele>260</ele>
        <time>2019-11-17T11:03:43+01:00</time>
      </trkpt>
      <trkpt lat="43.57446" lon="5.33876">
        <ele>259</ele>
        <time>2019-11-17T11:04:10+01:00</time>
      </trkpt>
      <trkpt lat="43.57449" lon="5.33845">
        <ele>259</ele>
        <time>2019-11-17T11:04:29+01:00</time>
      </trkpt>
      <trkpt lat="43.57453" lon="5.33813">
        <ele>257</ele>
        <time>2019-11-17T11:04:53+01:00</time>
      </trkpt>
      <trkpt lat="43.57459" lon="5.33783">
        <ele>257</ele>
        <time>2019-11-17T11:05:12+01:00</time>
      </trkpt>
      <trkpt lat="43.57464" lon="5.33753">
        <ele>257</ele>
        <time>2019-11-17T11:05:29+01:00</time>
      </trkpt>
      <trkpt lat="43.57472" lon="5.33722">
        <ele>256</ele>
        <time>2019-11-17T11:05:48+01:00</time>
      </trkpt>
      <trkpt lat="43.57475" lon="5.3369">
        <ele>256</ele>
        <time>2019-11-17T11:06:07+01:00</time>
      </trkpt>
      <trkpt lat="43.57478" lon="5.33658">
        <ele>256</ele>
        <time>2019-11-17T11:06:28+01:00</time>
      </trkpt>
      <trkpt lat="43.57484" lon="5.33627">
        <ele>256</ele>
        <time>2019-11-17T11:06:48+01:00</time>
      </trkpt>
      <trkpt lat="43.57492" lon="5.33598">
        <ele>257</ele>
        <time>2019-11-17T11:07:09+01:00</time>
      </trkpt>
      <trkpt lat="43.57501" lon="5.3357">
        <ele>256</ele>
        <time>2019-11-17T11:07:28+01:00</time>
      </trkpt>
      <trkpt lat="43.57509" lon="5.33539">
        <ele>256</ele>
        <time>2019-11-17T11:07:49+01:00</time>
      </trkpt>
      <trkpt lat="43.57511" lon="5.33508">
        <ele>257</ele>
        <time>2019-11-17T11:08:05+01:00</time>
      </trkpt>
      <trkpt lat="43.57516" lon="5.33477">
        <ele>257</ele>
        <time>2019-11-17T11:08:24+01:00</time>
      </trkpt>
      <trkpt lat="43.57523" lon="5.33447">
        <ele>257</ele>
        <time>2019-11-17T11:08:43+01:00</time>
      </trkpt>
      <trkpt lat="43.57526" lon="5.33416">
        <ele>258</ele>
        <time>2019-11-17T11:09:02+01:00</time>
      </trkpt>
      <trkpt lat="43.57528" lon="5.33385">
        <ele>259</ele>
        <time>2019-11-17T11:09:27+01:00</time>
      </trkpt>
      <trkpt lat="43.57528" lon="5.33354">
        <ele>259</ele>
        <time>2019-11-17T11:09:45+01:00</time>
      </trkpt>
      <trkpt lat="43.57532" lon="5.33323">
        <ele>262</ele>
        <time>2019-11-17T11:10:12+01:00</time>
      </trkpt>
      <trkpt lat="43.57531" lon="5.33291">
        <ele>262</ele>
        <time>2019-11-17T11:11:08+01:00</time>
      </trkpt>
      <trkpt lat="43.57533" lon="5.33258">
        <ele>263</ele>
        <time>2019-11-17T11:11:39+01:00</time>
      </trkpt>
      <trkpt lat="43.57538" lon="5.33227">
        <ele>267</ele>
        <time>2019-11-17T11:11:59+01:00</time>
      </trkpt>
      <trkpt lat="43.57551" lon="5.332">
        <ele>268</ele>
        <time>2019-11-17T11:12:22+01:00</time>
      </trkpt>
      <trkpt lat="43.57563" lon="5.33174">
        <ele>269</ele>
        <time>2019-11-17T11:12:57+01:00</time>
      </trkpt>
      <trkpt lat="43.57574" lon="5.33146">
        <ele>273</ele>
        <time>2019-11-17T11:13:20+01:00</time>
      </trkpt>
      <trkpt lat="43.57583" lon="5.33116">
        <ele>274</ele>
        <time>2019-11-17T11:13:40+01:00</time>
      </trkpt>
      <trkpt lat="43.57592" lon="5.33087">
        <ele>273</ele>
        <time>2019-11-17T11:14:03+01:00</time>
      </trkpt>
      <trkpt lat="43.57597" lon="5.33055">
        <ele>276</ele>
        <time>2019-11-17T11:14:24+01:00</time>
      </trkpt>
      <trkpt lat="43.57602" lon="5.33024">
        <ele>278</ele>
        <time>2019-11-17T11:14:44+01:00</time>
      </trkpt>
      <trkpt lat="43.57607" lon="5.32993">
        <ele>282</ele>
        <time>2019-11-17T11:15:25+01:00</time>
      </trkpt>
      <trkpt lat="43.57611" lon="5.32963">
        <ele>282</ele>
        <time>2019-11-17T11:15:51+01:00</time>
      </trkpt>
      <trkpt lat="43.57616" lon="5.32932">
        <ele>284</ele>
        <time>2019-11-17T11:16:32+01:00</time>
      </trkpt>
      <trkpt lat="43.57619" lon="5.329">
        <ele>288</ele>
        <time>2019-11-17T11:18:05+01:00</time>
      </trkpt>
      <trkpt lat="43.57623" lon="5.32869">
        <ele>288</ele>
        <time>2019-11-17T11:18:27+01:00</time>
      </trkpt>
      <trkpt lat="43.57628" lon="5.32838">
        <ele>288</ele>
        <time>2019-11-17T11:19:00+01:00</time>
      </trkpt>
      <trkpt lat="43.57631" lon="5.32807">
        <ele>291</ele>
        <time>2019-11-17T11:19:28+01:00</time>
      </trkpt>
      <trkpt lat="43.57636" lon="5.32776">
        <ele>291</ele>
        <time>2019-11-17T11:19:54+01:00</time>
      </trkpt>
      <trkpt lat="43.57638" lon="5.32744">
        <ele>292</ele>
        <time>2019-11-17T11:20:18+01:00</time>
      </trkpt>
      <trkpt lat="43.57638" lon="5.32713">
        <ele>293</ele>
        <time>2019-11-17T11:20:41+01:00</time>
      </trkpt>
      <trkpt lat="43.57629" lon="5.32684">
        <ele>293</ele>
        <time>2019-11-17T11:20:59+01:00</time>
      </trkpt>
      <trkpt lat="43.57617" lon="5.32657">
        <ele>295</ele>
        <time>2019-11-17T11:21:22+01:00</time>
      </trkpt>
      <trkpt lat="43.57605" lon="5.3263">
        <ele>296</ele>
        <time>2019-11-17T11:21:43+01:00</time>
      </trkpt>
      <trkpt lat="43.57605" lon="5.32599">
        <ele>297</ele>
        <time>2019-11-17T11:22:09+01:00</time>
      </trkpt>
      <trkpt lat="43.57605" lon="5.32567">
        <ele>300</ele>
        <time>2019-11-17T11:22:29+01:00</time>
      </trkpt>
      <trkpt lat="43.57611" lon="5.32537">
        <ele>300</ele>
        <time>2019-11-17T11:22:49+01:00</time>
      </trkpt>
      <trkpt lat="43.57624" lon="5.3251">
        <ele>300</ele>
        <time>2019-11-17T11:23:29+01:00</time>
      </trkpt>
      <trkpt lat="43.57634" lon="5.32481">
        <ele>303</ele>
        <time>2019-11-17T11:24:04+01:00</time>
      </trkpt>
      <trkpt lat="43.57643" lon="5.32452">
        <ele>303</ele>
        <time>2019-11-17T11:24:26+01:00</time>
      </trkpt>
      <trkpt lat="43.57656" lon="5.32426">
        <ele>304</ele>
        <time>2019-11-17T11:24:47+01:00</time>
      </trkpt>
      <trkpt lat="43.57663" lon="5.32397">
        <ele>305</ele>
        <time>2019-11-17T11:25:08+01:00</time>
      </trkpt>
      <trkpt lat="43.57668" lon="5.32365">
        <ele>302</ele>
        <time>2019-11-17T11:25:39+01:00</time>
      </trkpt>
      <trkpt lat="43.57665" lon="5.32334">
        <ele>304</ele>
        <time>2019-11-17T11:26:15+01:00</time>
      </trkpt>
      <trkpt lat="43.57661" lon="5.32304">
        <ele>304</ele>
        <time>2019-11-17T11:26:37+01:00</time>
      </trkpt>
      <trkpt lat="43.57655" lon="5.32272">
        <ele>303</ele>
        <time>2019-11-17T11:27:34+01:00</time>
      </trkpt>
      <trkpt lat="43.57651" lon="5.32242">
        <ele>302</ele>
        <time>2019-11-17T11:27:59+01:00</time>
      </trkpt>
      <trkpt lat="43.57639" lon="5.32215">
        <ele>303</ele>
        <time>2019-11-17T11:28:21+01:00</time>
      </trkpt>
      <trkpt lat="43.57628" lon="5.32188">
        <ele>303</ele>
        <time>2019-11-17T11:29:11+01:00</time>
      </trkpt>
      <trkpt lat="43.57619" lon="5.32158">
        <ele>303</ele>
        <time>2019-11-17T11:29:30+01:00</time>
      </trkpt>
      <trkpt lat="43.57612" lon="5.32128">
        <ele>303</ele>
        <time>2019-11-17T11:29:49+01:00</time>
      </trkpt>
      <trkpt lat="43.57605" lon="5.32098">
        <ele>302</ele>
        <time>2019-11-17T11:30:09+01:00</time>
      </trkpt>
      <trkpt lat="43.57598" lon="5.32068">
        <ele>302</ele>
        <time>2019-11-17T11:30:29+01:00</time>
      </trkpt>
      <trkpt lat="43.57588" lon="5.32039">
        <ele>302</ele>
        <time>2019-11-17T11:30:47+01:00</time>
      </trkpt>
      <trkpt lat="43.57581" lon="5.32009">
        <ele>301</ele>
        <time>2019-11-17T11:31:05+01:00</time>
      </trkpt>
      <trkpt lat="43.57578" lon="5.31977">
        <ele>301</ele>
        <time>2019-11-17T11:31:32+01:00</time>
      </trkpt>
      <trkpt lat="43.57569" lon="5.31947">
        <ele>301</ele>
        <time>2019-11-17T11:31:52+01:00</time>
      </trkpt>
      <trkpt lat="43.57563" lon="5.31917">
        <ele>302</ele>
        <time>2019-11-17T11:32:11+01:00</time>
      </trkpt>
      <trkpt lat="43.57557" lon="5.31885">
        <ele>301</ele>
        <time>2019-11-17T11:32:30+01:00</time>
      </trkpt>
      <trkpt lat="43.57554" lon="5.31854">
        <ele>301</ele>
        <time>2019-11-17T11:32:47+01:00</time>
      </trkpt>
      <trkpt lat="43.57555" lon="5.31823">
        <ele>301</ele>
        <time>2019-11-17T11:33:07+01:00</time>
      </trkpt>
      <trkpt lat="43.57558" lon="5.31791">
        <ele>300</ele>
        <time>2019-11-17T11:33:30+01:00</time>
      </trkpt>
      <trkpt lat="43.57558" lon="5.3176">
        <ele>300</ele>
        <time>2019-11-17T11:33:48+01:00</time>
      </trkpt>
      <trkpt lat="43.57558" lon="5.31728">
        <ele>299</ele>
        <time>2019-11-17T11:34:07+01:00</time>
      </trkpt>
      <trkpt lat="43.57557" lon="5.31696">
        <ele>299</ele>
        <time>2019-11-17T11:34:24+01:00</time>
      </trkpt>
      <trkpt lat="43.57559" lon="5.31665">
        <ele>297</ele>
        <time>2019-11-17T11:34:52+01:00</time>
      </trkpt>
      <trkpt lat="43.57562" lon="5.31634">
        <ele>297</ele>
        <time>2019-11-17T11:35:12+01:00</time>
      </trkpt>
      <trkpt lat="43.57585" lon="5.31634">
        <ele>300</ele>
        <time>2019-11-17T11:38:20+01:00</time>
      </trkpt>
      <trkpt lat="43.57607" lon="5.3164">
        <ele>301</ele>
        <time>2019-11-17T11:38:47+01:00</time>
      </trkpt>
      <trkpt lat="43.57631" lon="5.31641">
        <ele>302</ele>
        <time>2019-11-17T11:39:05+01:00</time>
      </trkpt>
      <trkpt lat="43.57654" lon="5.31644">
        <ele>302</ele>
        <time>2019-11-17T11:39:23+01:00</time>
      </trkpt>
      <trkpt lat="43.57676" lon="5.31645">
        <ele>303</ele>
        <time>2019-11-17T11:39:45+01:00</time>
      </trkpt>
      <trkpt lat="43.57698" lon="5.31641">
        <ele>302</ele>
        <time>2019-11-17T11:40:04+01:00</time>
      </trkpt>
      <trkpt lat="43.57721" lon="5.31632">
        <ele>302</ele>
        <time>2019-11-17T11:40:26+01:00</time>
      </trkpt>
      <trkpt lat="43.5773" lon="5.31603">
        <ele>301</ele>
        <time>2019-11-17T11:40:45+01:00</time>
      </trkpt>
      <trkpt lat="43.57733" lon="5.31571">
        <ele>302</ele>
        <time>2019-11-17T11:41:08+01:00</time>
      </trkpt>
      <trkpt lat="43.57727" lon="5.31541">
        <ele>303</ele>
        <time>2019-11-17T11:41:47+01:00</time>
      </trkpt>
      <trkpt lat="43.5772" lon="5.3151">
        <ele>304</ele>
        <time>2019-11-17T11:42:34+01:00</time>
      </trkpt>
      <trkpt lat="43.5771" lon="5.31482">
        <ele>304</ele>
        <time>2019-11-17T11:42:56+01:00</time>
      </trkpt>
      <trkpt lat="43.57687" lon="5.31485">
        <ele>305</ele>
        <time>2019-11-17T11:43:21+01:00</time>
      </trkpt>
      <trkpt lat="43.57664" lon="5.31488">
        <ele>303</ele>
        <time>2019-11-17T11:43:41+01:00</time>
      </trkpt>
      <trkpt lat="43.57642" lon="5.31497">
        <ele>302</ele>
        <time>2019-11-17T11:44:17+01:00</time>
      </trkpt>
      <trkpt lat="43.57662" lon="5.31482">
        <ele>303</ele>
        <time>2019-11-17T11:47:38+01:00</time>
      </trkpt>
      <trkpt lat="43.57685" lon="5.31482">
        <ele>305</ele>
        <time>2019-11-17T11:47:58+01:00</time>
      </trkpt>
      <trkpt lat="43.57708" lon="5.31481">
        <ele>305</ele>
        <time>2019-11-17T11:48:18+01:00</time>
      </trkpt>
      <trkpt lat="43.5772" lon="5.31509">
        <ele>304</ele>
        <time>2019-11-17T11:48:37+01:00</time>
      </trkpt>
      <trkpt lat="43.57728" lon="5.31538">
        <ele>303</ele>
        <time>2019-11-17T11:48:58+01:00</time>
      </trkpt>
      <trkpt lat="43.57734" lon="5.3157">
        <ele>302</ele>
        <time>2019-11-17T11:49:19+01:00</time>
      </trkpt>
      <trkpt lat="43.57757" lon="5.31574">
        <ele>300</ele>
        <time>2019-11-17T11:55:15+01:00</time>
      </trkpt>
      <trkpt lat="43.57774" lon="5.31554">
        <ele>300</ele>
        <time>2019-11-17T11:55:38+01:00</time>
      </trkpt>
      <trkpt lat="43.57794" lon="5.31536">
        <ele>300</ele>
        <time>2019-11-17T11:56:00+01:00</time>
      </trkpt>
      <trkpt lat="43.57811" lon="5.31516">
        <ele>299</ele>
        <time>2019-11-17T11:56:20+01:00</time>
      </trkpt>
      <trkpt lat="43.57828" lon="5.31496">
        <ele>300</ele>
        <time>2019-11-17T11:56:40+01:00</time>
      </trkpt>
      <trkpt lat="43.57846" lon="5.31473">
        <ele>299</ele>
        <time>2019-11-17T11:57:00+01:00</time>
      </trkpt>
      <trkpt lat="43.5786" lon="5.31448">
        <ele>299</ele>
        <time>2019-11-17T11:57:19+01:00</time>
      </trkpt>
      <trkpt lat="43.57881" lon="5.31433">
        <ele>299</ele>
        <time>2019-11-17T11:57:37+01:00</time>
      </trkpt>
      <trkpt lat="43.57896" lon="5.3141">
        <ele>301</ele>
        <time>2019-11-17T11:57:57+01:00</time>
      </trkpt>
      <trkpt lat="43.5791" lon="5.31384">
        <ele>302</ele>
        <time>2019-11-17T11:58:17+01:00</time>
      </trkpt>
      <trkpt lat="43.57921" lon="5.31356">
        <ele>301</ele>
        <time>2019-11-17T11:58:40+01:00</time>
      </trkpt>
      <trkpt lat="43.57934" lon="5.31328">
        <ele>303</ele>
        <time>2019-11-17T11:59:01+01:00</time>
      </trkpt>
      <trkpt lat="43.57949" lon="5.31304">
        <ele>304</ele>
        <time>2019-11-17T11:59:25+01:00</time>
      </trkpt>
      <trkpt lat="43.57959" lon="5.31276">
        <ele>304</ele>
        <time>2019-11-17T11:59:46+01:00</time>
      </trkpt>
      <trkpt lat="43.57971" lon="5.31249">
        <ele>306</ele>
        <time>2019-11-17T12:00:04+01:00</time>
      </trkpt>
      <trkpt lat="43.57976" lon="5.31217">
        <ele>306</ele>
        <time>2019-11-17T12:00:23+01:00</time>
      </trkpt>
      <trkpt lat="43.57984" lon="5.31187">
        <ele>306</ele>
        <time>2019-11-17T12:00:41+01:00</time>
      </trkpt>
      <trkpt lat="43.57997" lon="5.3116">
        <ele>306</ele>
        <time>2019-11-17T12:01:00+01:00</time>
      </trkpt>
      <trkpt lat="43.58007" lon="5.31131">
        <ele>305</ele>
        <time>2019-11-17T12:01:19+01:00</time>
      </trkpt>
      <trkpt lat="43.58006" lon="5.31099">
        <ele>304</ele>
        <time>2019-11-17T12:01:41+01:00</time>
      </trkpt>
      <trkpt lat="43.57996" lon="5.31071">
        <ele>303</ele>
        <time>2019-11-17T12:02:03+01:00</time>
      </trkpt>
      <trkpt lat="43.57976" lon="5.31057">
        <ele>302</ele>
        <time>2019-11-17T12:02:22+01:00</time>
      </trkpt>
      <trkpt lat="43.57954" lon="5.31046">
        <ele>302</ele>
        <time>2019-11-17T12:03:05+01:00</time>
      </trkpt>
      <trkpt lat="43.57932" lon="5.31038">
        <ele>302</ele>
        <time>2019-11-17T12:03:25+01:00</time>
      </trkpt>
      <trkpt lat="43.5791" lon="5.31031">
        <ele>301</ele>
        <time>2019-11-17T12:03:46+01:00</time>
      </trkpt>
      <trkpt lat="43.57888" lon="5.31021">
        <ele>301</ele>
        <time>2019-11-17T12:04:10+01:00</time>
      </trkpt>
      <trkpt lat="43.57878" lon="5.30993">
        <ele>299</ele>
        <time>2019-11-17T12:04:31+01:00</time>
      </trkpt>
      <trkpt lat="43.57866" lon="5.30966">
        <ele>299</ele>
        <time>2019-11-17T12:04:50+01:00</time>
      </trkpt>
      <trkpt lat="43.57847" lon="5.30948">
        <ele>298</ele>
        <time>2019-11-17T12:05:19+01:00</time>
      </trkpt>
      <trkpt lat="43.57829" lon="5.30929">
        <ele>297</ele>
        <time>2019-11-17T12:05:40+01:00</time>
      </trkpt>
      <trkpt lat="43.57817" lon="5.30902">
        <ele>296</ele>
        <time>2019-11-17T12:05:57+01:00</time>
      </trkpt>
      <trkpt lat="43.57806" lon="5.30875">
        <ele>295</ele>
        <time>2019-11-17T12:06:16+01:00</time>
      </trkpt>
      <trkpt lat="43.57793" lon="5.30848">
        <ele>294</ele>
        <time>2019-11-17T12:06:36+01:00</time>
      </trkpt>
      <trkpt lat="43.57782" lon="5.3082">
        <ele>292</ele>
        <time>2019-11-17T12:06:56+01:00</time>
      </trkpt>
      <trkpt lat="43.57793" lon="5.30792">
        <ele>292</ele>
        <time>2019-11-17T12:08:20+01:00</time>
      </trkpt>
      <trkpt lat="43.57806" lon="5.30766">
        <ele>293</ele>
        <time>2019-11-17T12:08:42+01:00</time>
      </trkpt>
      <trkpt lat="43.57814" lon="5.30735">
        <ele>292</ele>
        <time>2019-11-17T12:09:02+01:00</time>
      </trkpt>
      <trkpt lat="43.57823" lon="5.30705">
        <ele>291</ele>
        <time>2019-11-17T12:09:21+01:00</time>
      </trkpt>
      <trkpt lat="43.5783" lon="5.30674">
        <ele>292</ele>
        <time>2019-11-17T12:09:39+01:00</time>
      </trkpt>
      <trkpt lat="43.57838" lon="5.30644">
        <ele>294</ele>
        <time>2019-11-17T12:09:59+01:00</time>
      </trkpt>
      <trkpt lat="43.57842" lon="5.30613">
        <ele>294</ele>
        <time>2019-11-17T12:10:18+01:00</time>
      </trkpt>
      <trkpt lat="43.57847" lon="5.30582">
        <ele>294</ele>
        <time>2019-11-17T12:10:38+01:00</time>
      </trkpt>
      <trkpt lat="43.57851" lon="5.3055">
        <ele>295</ele>
        <time>2019-11-17T12:10:58+01:00</time>
      </trkpt>
      <trkpt lat="43.57853" lon="5.30518">
        <ele>295</ele>
        <time>2019-11-17T12:11:16+01:00</time>
      </trkpt>
      <trkpt lat="43.57853" lon="5.30485">
        <ele>295</ele>
        <time>2019-11-17T12:11:36+01:00</time>
      </trkpt>
      <trkpt lat="43.57855" lon="5.30454">
        <ele>295</ele>
        <time>2019-11-17T12:11:56+01:00</time>
      </trkpt>
      <trkpt lat="43.57858" lon="5.30422">
        <ele>295</ele>
        <time>2019-11-17T12:12:16+01:00</time>
      </trkpt>
      <trkpt lat="43.57861" lon="5.3039">
        <ele>294</ele>
        <time>2019-11-17T12:12:37+01:00</time>
      </trkpt>
      <trkpt lat="43.57857" lon="5.30359">
        <ele>294</ele>
        <time>2019-11-17T12:13:42+01:00</time>
      </trkpt>
      <trkpt lat="43.57837" lon="5.30342">
        <ele>293</ele>
        <time>2019-11-17T12:14:03+01:00</time>
      </trkpt>
      <trkpt lat="43.57816" lon="5.30329">
        <ele>291</ele>
        <time>2019-11-17T12:14:22+01:00</time>
      </trkpt>
      <trkpt lat="43.57793" lon="5.30318">
        <ele>290</ele>
        <time>2019-11-17T12:14:40+01:00</time>
      </trkpt>
      <trkpt lat="43.57772" lon="5.30306">
        <ele>289</ele>
        <time>2019-11-17T12:15:01+01:00</time>
      </trkpt>
      <trkpt lat="43.57752" lon="5.30292">
        <ele>289</ele>
        <time>2019-11-17T12:15:24+01:00</time>
      </trkpt>
      <trkpt lat="43.57729" lon="5.3028">
        <ele>283</ele>
        <time>2019-11-17T12:15:48+01:00</time>
      </trkpt>
      <trkpt lat="43.57707" lon="5.3027">
        <ele>281</ele>
        <time>2019-11-17T12:16:02+01:00</time>
      </trkpt>
      <trkpt lat="43.57685" lon="5.30263">
        <ele>280</ele>
        <time>2019-11-17T12:16:21+01:00</time>
      </trkpt>
      <trkpt lat="43.57666" lon="5.30246">
        <ele>279</ele>
        <time>2019-11-17T12:16:42+01:00</time>
      </trkpt>
      <trkpt lat="43.57647" lon="5.30229">
        <ele>279</ele>
        <time>2019-11-17T12:17:02+01:00</time>
      </trkpt>
      <trkpt lat="43.57625" lon="5.30217">
        <ele>278</ele>
        <time>2019-11-17T12:17:22+01:00</time>
      </trkpt>
      <trkpt lat="43.57605" lon="5.30202">
        <ele>278</ele>
        <time>2019-11-17T12:17:41+01:00</time>
      </trkpt>
      <trkpt lat="43.57584" lon="5.30187">
        <ele>278</ele>
        <time>2019-11-17T12:18:01+01:00</time>
      </trkpt>
      <trkpt lat="43.57561" lon="5.30173">
        <ele>275</ele>
        <time>2019-11-17T12:18:23+01:00</time>
      </trkpt>
      <trkpt lat="43.57541" lon="5.3016">
        <ele>278</ele>
        <time>2019-11-17T12:18:42+01:00</time>
      </trkpt>
      <trkpt lat="43.57519" lon="5.3015">
        <ele>277</ele>
        <time>2019-11-17T12:19:00+01:00</time>
      </trkpt>
      <trkpt lat="43.57497" lon="5.3014">
        <ele>276</ele>
        <time>2019-11-17T12:19:20+01:00</time>
      </trkpt>
      <trkpt lat="43.57477" lon="5.30125">
        <ele>277</ele>
        <time>2019-11-17T12:19:41+01:00</time>
      </trkpt>
      <trkpt lat="43.57455" lon="5.30113">
        <ele>277</ele>
        <time>2019-11-17T12:20:02+01:00</time>
      </trkpt>
      <trkpt lat="43.57434" lon="5.30101">
        <ele>278</ele>
        <time>2019-11-17T12:20:27+01:00</time>
      </trkpt>
      <trkpt lat="43.57414" lon="5.30086">
        <ele>280</ele>
        <time>2019-11-17T12:20:48+01:00</time>
      </trkpt>
      <trkpt lat="43.57393" lon="5.30074">
        <ele>282</ele>
        <time>2019-11-17T12:21:12+01:00</time>
      </trkpt>
      <trkpt lat="43.57372" lon="5.30062">
        <ele>283</ele>
        <time>2019-11-17T12:21:53+01:00</time>
      </trkpt>
      <trkpt lat="43.57351" lon="5.30049">
        <ele>283</ele>
        <time>2019-11-17T12:22:14+01:00</time>
      </trkpt>
      <trkpt lat="43.5733" lon="5.30034">
        <ele>284</ele>
        <time>2019-11-17T12:22:35+01:00</time>
      </trkpt>
      <trkpt lat="43.57308" lon="5.30027">
        <ele>284</ele>
        <time>2019-11-17T12:22:59+01:00</time>
      </trkpt>
      <trkpt lat="43.57286" lon="5.30014">
        <ele>285</ele>
        <time>2019-11-17T12:23:19+01:00</time>
      </trkpt>
      <trkpt lat="43.57265" lon="5.3">
        <ele>287</ele>
        <time>2019-11-17T12:23:40+01:00</time>
      </trkpt>
      <trkpt lat="43.57244" lon="5.29986">
        <ele>287</ele>
        <time>2019-11-17T12:24:01+01:00</time>
      </trkpt>
      <trkpt lat="43.57222" lon="5.29975">
        <ele>286</ele>
        <time>2019-11-17T12:24:22+01:00</time>
      </trkpt>
      <trkpt lat="43.57201" lon="5.29958">
        <ele>286</ele>
        <time>2019-11-17T12:24:57+01:00</time>
      </trkpt>
      <trkpt lat="43.5718" lon="5.29943">
        <ele>285</ele>
        <time>2019-11-17T12:25:19+01:00</time>
      </trkpt>
      <trkpt lat="43.5716" lon="5.29929">
        <ele>284</ele>
        <time>2019-11-17T12:25:39+01:00</time>
      </trkpt>
      <trkpt lat="43.57139" lon="5.29915">
        <ele>284</ele>
        <time>2019-11-17T12:26:00+01:00</time>
      </trkpt>
      <trkpt lat="43.57117" lon="5.29907">
        <ele>284</ele>
        <time>2019-11-17T12:26:21+01:00</time>
      </trkpt>
      <trkpt lat="43.57097" lon="5.29922">
        <ele>283</ele>
        <time>2019-11-17T12:26:39+01:00</time>
      </trkpt>
      <trkpt lat="43.57081" lon="5.29946">
        <ele>283</ele>
        <time>2019-11-17T12:27:56+01:00</time>
      </trkpt>
      <trkpt lat="43.57067" lon="5.29971">
        <ele>283</ele>
        <time>2019-11-17T12:28:13+01:00</time>
      </trkpt>
      <trkpt lat="43.57053" lon="5.29996">
        <ele>283</ele>
        <time>2019-11-17T12:28:32+01:00</time>
      </trkpt>
      <trkpt lat="43.5704" lon="5.30021">
        <ele>282</ele>
        <time>2019-11-17T12:28:50+01:00</time>
      </trkpt>
      <trkpt lat="43.57026" lon="5.30046">
        <ele>282</ele>
        <time>2019-11-17T12:29:10+01:00</time>
      </trkpt>
      <trkpt lat="43.57012" lon="5.30071">
        <ele>281</ele>
        <time>2019-11-17T12:29:28+01:00</time>
      </trkpt>
      <trkpt lat="43.57" lon="5.30099">
        <ele>281</ele>
        <time>2019-11-17T12:29:45+01:00</time>
      </trkpt>
      <trkpt lat="43.56987" lon="5.30125">
        <ele>282</ele>
        <time>2019-11-17T12:30:02+01:00</time>
      </trkpt>
      <trkpt lat="43.56975" lon="5.30152">
        <ele>282</ele>
        <time>2019-11-17T12:30:22+01:00</time>
      </trkpt>
      <trkpt lat="43.56961" lon="5.30178">
        <ele>281</ele>
        <time>2019-11-17T12:30:42+01:00</time>
      </trkpt>
      <trkpt lat="43.5695" lon="5.30205">
        <ele>281</ele>
        <time>2019-11-17T12:31:00+01:00</time>
      </trkpt>
      <trkpt lat="43.56937" lon="5.30232">
        <ele>281</ele>
        <time>2019-11-17T12:31:20+01:00</time>
      </trkpt>
      <trkpt lat="43.56926" lon="5.30259">
        <ele>280</ele>
        <time>2019-11-17T12:31:38+01:00</time>
      </trkpt>
      <trkpt lat="43.56912" lon="5.30285">
        <ele>280</ele>
        <time>2019-11-17T12:31:57+01:00</time>
      </trkpt>
      <trkpt lat="43.56911" lon="5.30317">
        <ele>279</ele>
        <time>2019-11-17T12:33:19+01:00</time>
      </trkpt>
      <trkpt lat="43.56901" lon="5.30346">
        <ele>278</ele>
        <time>2019-11-17T12:33:40+01:00</time>
      </trkpt>
      <trkpt lat="43.56893" lon="5.30374">
        <ele>278</ele>
        <time>2019-11-17T12:34:03+01:00</time>
      </trkpt>
      <trkpt lat="43.56882" lon="5.30404">
        <ele>278</ele>
        <time>2019-11-17T12:34:21+01:00</time>
      </trkpt>
      <trkpt lat="43.56872" lon="5.30433">
        <ele>276</ele>
        <time>2019-11-17T12:34:38+01:00</time>
      </trkpt>
      <trkpt lat="43.56862" lon="5.30461">
        <ele>276</ele>
        <time>2019-11-17T12:34:57+01:00</time>
      </trkpt>
      <trkpt lat="43.56844" lon="5.3048">
        <ele>275</ele>
        <time>2019-11-17T12:35:28+01:00</time>
      </trkpt>
      <trkpt lat="43.5683" lon="5.30505">
        <ele>275</ele>
        <time>2019-11-17T12:35:55+01:00</time>
      </trkpt>
      <trkpt lat="43.56817" lon="5.30531">
        <ele>275</ele>
        <time>2019-11-17T12:36:15+01:00</time>
      </trkpt>
      <trkpt lat="43.56801" lon="5.30555">
        <ele>275</ele>
        <time>2019-11-17T12:36:38+01:00</time>
      </trkpt>
      <trkpt lat="43.56789" lon="5.30583">
        <ele>275</ele>
        <time>2019-11-17T12:36:59+01:00</time>
      </trkpt>
      <trkpt lat="43.56777" lon="5.30609">
        <ele>272</ele>
        <time>2019-11-17T12:37:22+01:00</time>
      </trkpt>
      <trkpt lat="43.56765" lon="5.30636">
        <ele>272</ele>
        <time>2019-11-17T12:37:42+01:00</time>
      </trkpt>
      <trkpt lat="43.56754" lon="5.30663">
        <ele>273</ele>
        <time>2019-11-17T12:38:00+01:00</time>
      </trkpt>
      <trkpt lat="43.56739" lon="5.30688">
        <ele>274</ele>
        <time>2019-11-17T12:38:25+01:00</time>
      </trkpt>
      <trkpt lat="43.56731" lon="5.30717">
        <ele>274</ele>
        <time>2019-11-17T12:38:43+01:00</time>
      </trkpt>
      <trkpt lat="43.56727" lon="5.30748">
        <ele>274</ele>
        <time>2019-11-17T12:39:06+01:00</time>
      </trkpt>
      <trkpt lat="43.5672" lon="5.30778">
        <ele>274</ele>
        <time>2019-11-17T12:39:28+01:00</time>
      </trkpt>
      <trkpt lat="43.56705" lon="5.30803">
        <ele>275</ele>
        <time>2019-11-17T12:39:51+01:00</time>
      </trkpt>
      <trkpt lat="43.56695" lon="5.30833">
        <ele>275</ele>
        <time>2019-11-17T12:40:14+01:00</time>
      </trkpt>
      <trkpt lat="43.56689" lon="5.30864">
        <ele>275</ele>
        <time>2019-11-17T12:40:33+01:00</time>
      </trkpt>
      <trkpt lat="43.5668" lon="5.30893">
        <ele>276</ele>
        <time>2019-11-17T12:40:53+01:00</time>
      </trkpt>
      <trkpt lat="43.56667" lon="5.30918">
        <ele>277</ele>
        <time>2019-11-17T12:41:22+01:00</time>
      </trkpt>
      <trkpt lat="43.56645" lon="5.30928">
        <ele>277</ele>
        <time>2019-11-17T12:41:43+01:00</time>
      </trkpt>
      <trkpt lat="43.56624" lon="5.3094">
        <ele>276</ele>
        <time>2019-11-17T12:42:03+01:00</time>
      </trkpt>
      <trkpt lat="43.5661" lon="5.30966">
        <ele>276</ele>
        <time>2019-11-17T12:42:21+01:00</time>
      </trkpt>
      <trkpt lat="43.56603" lon="5.30996">
        <ele>277</ele>
        <time>2019-11-17T12:42:44+01:00</time>
      </trkpt>
      <trkpt lat="43.56595" lon="5.31026">
        <ele>279</ele>
        <time>2019-11-17T12:43:03+01:00</time>
      </trkpt>
      <trkpt lat="43.56588" lon="5.31057">
        <ele>280</ele>
        <time>2019-11-17T12:43:23+01:00</time>
      </trkpt>
      <trkpt lat="43.56576" lon="5.31084">
        <ele>279</ele>
        <time>2019-11-17T12:43:43+01:00</time>
      </trkpt>
      <trkpt lat="43.56567" lon="5.31113">
        <ele>276</ele>
        <time>2019-11-17T12:44:04+01:00</time>
      </trkpt>
      <trkpt lat="43.56554" lon="5.31139">
        <ele>276</ele>
        <time>2019-11-17T12:44:23+01:00</time>
      </trkpt>
      <trkpt lat="43.56545" lon="5.31169">
        <ele>277</ele>
        <time>2019-11-17T12:44:43+01:00</time>
      </trkpt>
      <trkpt lat="43.56529" lon="5.31191">
        <ele>277</ele>
        <time>2019-11-17T12:45:03+01:00</time>
      </trkpt>
      <trkpt lat="43.56515" lon="5.31217">
        <ele>277</ele>
        <time>2019-11-17T12:45:25+01:00</time>
      </trkpt>
      <trkpt lat="43.56502" lon="5.31242">
        <ele>278</ele>
        <time>2019-11-17T12:45:51+01:00</time>
      </trkpt>
      <trkpt lat="43.56491" lon="5.31269">
        <ele>275</ele>
        <time>2019-11-17T12:46:16+01:00</time>
      </trkpt>
      <trkpt lat="43.56477" lon="5.31293">
        <ele>274</ele>
        <time>2019-11-17T12:46:36+01:00</time>
      </trkpt>
      <trkpt lat="43.56458" lon="5.31312">
        <ele>274</ele>
        <time>2019-11-17T12:46:57+01:00</time>
      </trkpt>
      <trkpt lat="43.56447" lon="5.31341">
        <ele>275</ele>
        <time>2019-11-17T12:47:18+01:00</time>
      </trkpt>
      <trkpt lat="43.56439" lon="5.31371">
        <ele>276</ele>
        <time>2019-11-17T12:47:40+01:00</time>
      </trkpt>
      <trkpt lat="43.56426" lon="5.31398">
        <ele>276</ele>
        <time>2019-11-17T12:47:59+01:00</time>
      </trkpt>
      <trkpt lat="43.5641" lon="5.3142">
        <ele>275</ele>
        <time>2019-11-17T12:48:31+01:00</time>
      </trkpt>
      <trkpt lat="43.56396" lon="5.31445">
        <ele>272</ele>
        <time>2019-11-17T12:48:52+01:00</time>
      </trkpt>
      <trkpt lat="43.56382" lon="5.31469">
        <ele>272</ele>
        <time>2019-11-17T12:49:11+01:00</time>
      </trkpt>
      <trkpt lat="43.56372" lon="5.31497">
        <ele>271</ele>
        <time>2019-11-17T12:49:30+01:00</time>
      </trkpt>
      <trkpt lat="43.5636" lon="5.31523">
        <ele>273</ele>
        <time>2019-11-17T12:49:50+01:00</time>
      </trkpt>
      <trkpt lat="43.56345" lon="5.31549">
        <ele>273</ele>
        <time>2019-11-17T12:50:10+01:00</time>
      </trkpt>
      <trkpt lat="43.5633" lon="5.31573">
        <ele>270</ele>
        <time>2019-11-17T12:50:37+01:00</time>
      </trkpt>
      <trkpt lat="43.56348" lon="5.31593">
        <ele>274</ele>
        <time>2019-11-17T12:52:17+01:00</time>
      </trkpt>
      <trkpt lat="43.56371" lon="5.31598">
        <ele>275</ele>
        <time>2019-11-17T12:52:42+01:00</time>
      </trkpt>
      <trkpt lat="43.56393" lon="5.31603">
        <ele>276</ele>
        <time>2019-11-17T12:53:01+01:00</time>
      </trkpt>
      <trkpt lat="43.56415" lon="5.31615">
        <ele>276</ele>
        <time>2019-11-17T12:53:21+01:00</time>
      </trkpt>
      <trkpt lat="43.56433" lon="5.31633">
        <ele>278</ele>
        <time>2019-11-17T12:53:40+01:00</time>
      </trkpt>
      <trkpt lat="43.56452" lon="5.31652">
        <ele>278</ele>
        <time>2019-11-17T12:54:00+01:00</time>
      </trkpt>
      <trkpt lat="43.5647" lon="5.31672">
        <ele>278</ele>
        <time>2019-11-17T12:54:20+01:00</time>
      </trkpt>
      <trkpt lat="43.56489" lon="5.3169">
        <ele>278</ele>
        <time>2019-11-17T12:54:40+01:00</time>
      </trkpt>
      <trkpt lat="43.56507" lon="5.31708">
        <ele>279</ele>
        <time>2019-11-17T12:55:04+01:00</time>
      </trkpt>
      <trkpt lat="43.56523" lon="5.3173">
        <ele>279</ele>
        <time>2019-11-17T12:55:26+01:00</time>
      </trkpt>
      <trkpt lat="43.56546" lon="5.3174">
        <ele>279</ele>
        <time>2019-11-17T12:55:52+01:00</time>
      </trkpt>
      <trkpt lat="43.56568" lon="5.31743">
        <ele>279</ele>
        <time>2019-11-17T12:56:12+01:00</time>
      </trkpt>
      <trkpt lat="43.56588" lon="5.31759">
        <ele>276</ele>
        <time>2019-11-17T12:56:33+01:00</time>
      </trkpt>
      <trkpt lat="43.56593" lon="5.3179">
        <ele>273</ele>
        <time>2019-11-17T12:56:54+01:00</time>
      </trkpt>
      <trkpt lat="43.56586" lon="5.3182">
        <ele>276</ele>
        <time>2019-11-17T12:57:17+01:00</time>
      </trkpt>
      <trkpt lat="43.56578" lon="5.3185">
        <ele>278</ele>
        <time>2019-11-17T12:57:39+01:00</time>
      </trkpt>
      <trkpt lat="43.56572" lon="5.31881">
        <ele>278</ele>
        <time>2019-11-17T12:57:58+01:00</time>
      </trkpt>
      <trkpt lat="43.56582" lon="5.31909">
        <ele>276</ele>
        <time>2019-11-17T12:58:21+01:00</time>
      </trkpt>
      <trkpt lat="43.56594" lon="5.31929">
        <ele>268</ele>
        <time>2019-11-17T13:36:49+01:00</time>
      </trkpt>
      <trkpt lat="43.56578" lon="5.31907">
        <ele>277</ele>
        <time>2019-11-17T13:38:27+01:00</time>
      </trkpt>
      <trkpt lat="43.56569" lon="5.31878">
        <ele>278</ele>
        <time>2019-11-17T13:38:57+01:00</time>
      </trkpt>
      <trkpt lat="43.56578" lon="5.31847">
        <ele>278</ele>
        <time>2019-11-17T13:39:16+01:00</time>
      </trkpt>
      <trkpt lat="43.56587" lon="5.31819">
        <ele>275</ele>
        <time>2019-11-17T13:39:34+01:00</time>
      </trkpt>
      <trkpt lat="43.56589" lon="5.31787">
        <ele>273</ele>
        <time>2019-11-17T13:39:55+01:00</time>
      </trkpt>
      <trkpt lat="43.56591" lon="5.31755">
        <ele>276</ele>
        <time>2019-11-17T13:40:13+01:00</time>
      </trkpt>
      <trkpt lat="43.56594" lon="5.31724">
        <ele>275</ele>
        <time>2019-11-17T13:40:31+01:00</time>
      </trkpt>
      <trkpt lat="43.56599" lon="5.31693">
        <ele>275</ele>
        <time>2019-11-17T13:40:48+01:00</time>
      </trkpt>
      <trkpt lat="43.56623" lon="5.31691">
        <ele>274</ele>
        <time>2019-11-17T13:41:11+01:00</time>
      </trkpt>
      <trkpt lat="43.56641" lon="5.3171">
        <ele>272</ele>
        <time>2019-11-17T13:41:38+01:00</time>
      </trkpt>
      <trkpt lat="43.5665" lon="5.3174">
        <ele>269</ele>
        <time>2019-11-17T13:42:01+01:00</time>
      </trkpt>
      <trkpt lat="43.56654" lon="5.31771">
        <ele>267</ele>
        <time>2019-11-17T13:42:22+01:00</time>
      </trkpt>
      <trkpt lat="43.56659" lon="5.31802">
        <ele>267</ele>
        <time>2019-11-17T13:42:41+01:00</time>
      </trkpt>
      <trkpt lat="43.56665" lon="5.31833">
        <ele>261</ele>
        <time>2019-11-17T13:43:02+01:00</time>
      </trkpt>
      <trkpt lat="43.56668" lon="5.31865">
        <ele>247</ele>
        <time>2019-11-17T13:43:26+01:00</time>
      </trkpt>
      <trkpt lat="43.56666" lon="5.31896">
        <ele>260</ele>
        <time>2019-11-17T13:43:47+01:00</time>
      </trkpt>
      <trkpt lat="43.5666" lon="5.31926">
        <ele>254</ele>
        <time>2019-11-17T13:44:09+01:00</time>
      </trkpt>
      <trkpt lat="43.56659" lon="5.31957">
        <ele>255</ele>
        <time>2019-11-17T13:44:36+01:00</time>
      </trkpt>
      <trkpt lat="43.56652" lon="5.31986">
        <ele>251</ele>
        <time>2019-11-17T13:45:00+01:00</time>
      </trkpt>
      <trkpt lat="43.56645" lon="5.32017">
        <ele>245</ele>
        <time>2019-11-17T13:45:29+01:00</time>
      </trkpt>
      <trkpt lat="43.56638" lon="5.32048">
        <ele>244</ele>
        <time>2019-11-17T13:45:51+01:00</time>
      </trkpt>
      <trkpt lat="43.56626" lon="5.32075">
        <ele>244</ele>
        <time>2019-11-17T13:46:10+01:00</time>
      </trkpt>
      <trkpt lat="43.56617" lon="5.32103">
        <ele>236</ele>
        <time>2019-11-17T13:46:31+01:00</time>
      </trkpt>
      <trkpt lat="43.56609" lon="5.32132">
        <ele>234</ele>
        <time>2019-11-17T13:46:50+01:00</time>
      </trkpt>
      <trkpt lat="43.56603" lon="5.32163">
        <ele>233</ele>
        <time>2019-11-17T13:47:10+01:00</time>
      </trkpt>
      <trkpt lat="43.56593" lon="5.32192">
        <ele>225</ele>
        <time>2019-11-17T13:47:33+01:00</time>
      </trkpt>
      <trkpt lat="43.56582" lon="5.32219">
        <ele>235</ele>
        <time>2019-11-17T13:47:49+01:00</time>
      </trkpt>
      <trkpt lat="43.56568" lon="5.32244">
        <ele>232</ele>
        <time>2019-11-17T13:48:23+01:00</time>
      </trkpt>
      <trkpt lat="43.56555" lon="5.3227">
        <ele>228</ele>
        <time>2019-11-17T13:48:46+01:00</time>
      </trkpt>
      <trkpt lat="43.56544" lon="5.32299">
        <ele>227</ele>
        <time>2019-11-17T13:49:09+01:00</time>
      </trkpt>
      <trkpt lat="43.56531" lon="5.32325">
        <ele>228</ele>
        <time>2019-11-17T13:49:26+01:00</time>
      </trkpt>
      <trkpt lat="43.56515" lon="5.32351">
        <ele>222</ele>
        <time>2019-11-17T13:49:48+01:00</time>
      </trkpt>
      <trkpt lat="43.565" lon="5.32376">
        <ele>219</ele>
        <time>2019-11-17T13:50:02+01:00</time>
      </trkpt>
      <trkpt lat="43.56486" lon="5.32401">
        <ele>226</ele>
        <time>2019-11-17T13:50:24+01:00</time>
      </trkpt>
      <trkpt lat="43.56472" lon="5.32425">
        <ele>219</ele>
        <time>2019-11-17T13:50:43+01:00</time>
      </trkpt>
      <trkpt lat="43.56454" lon="5.32449">
        <ele>219</ele>
        <time>2019-11-17T13:51:01+01:00</time>
      </trkpt>
      <trkpt lat="43.5644" lon="5.32474">
        <ele>218</ele>
        <time>2019-11-17T13:51:21+01:00</time>
      </trkpt>
      <trkpt lat="43.56427" lon="5.32501">
        <ele>213</ele>
        <time>2019-11-17T13:51:40+01:00</time>
      </trkpt>
      <trkpt lat="43.56411" lon="5.32524">
        <ele>216</ele>
        <time>2019-11-17T13:51:58+01:00</time>
      </trkpt>
      <trkpt lat="43.56393" lon="5.32545">
        <ele>215</ele>
        <time>2019-11-17T13:52:18+01:00</time>
      </trkpt>
      <trkpt lat="43.56375" lon="5.32565">
        <ele>215</ele>
        <time>2019-11-17T13:52:36+01:00</time>
      </trkpt>
      <trkpt lat="43.5636" lon="5.32588">
        <ele>209</ele>
        <time>2019-11-17T13:53:12+01:00</time>
      </trkpt>
      <trkpt lat="43.56342" lon="5.3261">
        <ele>209</ele>
        <time>2019-11-17T13:53:36+01:00</time>
      </trkpt>
      <trkpt lat="43.56328" lon="5.32634">
        <ele>214</ele>
        <time>2019-11-17T13:53:54+01:00</time>
      </trkpt>
      <trkpt lat="43.56311" lon="5.32657">
        <ele>213</ele>
        <time>2019-11-17T13:54:15+01:00</time>
      </trkpt>
      <trkpt lat="43.56294" lon="5.32678">
        <ele>208</ele>
        <time>2019-11-17T13:54:33+01:00</time>
      </trkpt>
      <trkpt lat="43.5628" lon="5.32703">
        <ele>208</ele>
        <time>2019-11-17T13:54:52+01:00</time>
      </trkpt>
      <trkpt lat="43.56259" lon="5.32718">
        <ele>208</ele>
        <time>2019-11-17T13:55:11+01:00</time>
      </trkpt>
      <trkpt lat="43.56236" lon="5.32712">
        <ele>215</ele>
        <time>2019-11-17T13:55:33+01:00</time>
      </trkpt>
      <trkpt lat="43.56215" lon="5.32722">
        <ele>215</ele>
        <time>2019-11-17T13:56:02+01:00</time>
      </trkpt>
      <trkpt lat="43.56211" lon="5.32754">
        <ele>209</ele>
        <time>2019-11-17T13:56:22+01:00</time>
      </trkpt>
      <trkpt lat="43.56202" lon="5.32784">
        <ele>208</ele>
        <time>2019-11-17T13:56:44+01:00</time>
      </trkpt>
      <trkpt lat="43.56198" lon="5.32816">
        <ele>206</ele>
        <time>2019-11-17T13:57:17+01:00</time>
      </trkpt>
      <trkpt lat="43.5618" lon="5.32836">
        <ele>203</ele>
        <time>2019-11-17T13:58:06+01:00</time>
      </trkpt>
      <trkpt lat="43.5617" lon="5.32864">
        <ele>200</ele>
        <time>2019-11-17T13:58:35+01:00</time>
      </trkpt>
      <trkpt lat="43.56162" lon="5.32893">
        <ele>204</ele>
        <time>2019-11-17T13:58:56+01:00</time>
      </trkpt>
      <trkpt lat="43.56177" lon="5.32917">
        <ele>195</ele>
        <time>2019-11-17T14:00:56+01:00</time>
      </trkpt>
      <trkpt lat="43.56196" lon="5.32936">
        <ele>193</ele>
        <time>2019-11-17T14:01:36+01:00</time>
      </trkpt>
      <trkpt lat="43.56214" lon="5.32956">
        <ele>192</ele>
        <time>2019-11-17T14:01:57+01:00</time>
      </trkpt>
      <trkpt lat="43.56233" lon="5.32974">
        <ele>191</ele>
        <time>2019-11-17T14:02:22+01:00</time>
      </trkpt>
      <trkpt lat="43.56252" lon="5.32991">
        <ele>189</ele>
        <time>2019-11-17T14:02:44+01:00</time>
      </trkpt>
      <trkpt lat="43.56271" lon="5.33009">
        <ele>187</ele>
        <time>2019-11-17T14:03:07+01:00</time>
      </trkpt>
      <trkpt lat="43.56292" lon="5.32997">
        <ele>187</ele>
        <time>2019-11-17T14:03:32+01:00</time>
      </trkpt>
      <trkpt lat="43.56316" lon="5.32997">
        <ele>186</ele>
        <time>2019-11-17T14:03:56+01:00</time>
      </trkpt>
      <trkpt lat="43.56335" lon="5.33014">
        <ele>184</ele>
        <time>2019-11-17T14:04:17+01:00</time>
      </trkpt>
      <trkpt lat="43.56353" lon="5.33034">
        <ele>184</ele>
        <time>2019-11-17T14:04:40+01:00</time>
      </trkpt>
      <trkpt lat="43.56369" lon="5.33056">
        <ele>183</ele>
        <time>2019-11-17T14:05:07+01:00</time>
      </trkpt>
      <trkpt lat="43.56391" lon="5.33067">
        <ele>183</ele>
        <time>2019-11-17T14:05:28+01:00</time>
      </trkpt>
      <trkpt lat="43.56413" lon="5.33074">
        <ele>183</ele>
        <time>2019-11-17T14:05:47+01:00</time>
      </trkpt>
      <trkpt lat="43.56436" lon="5.33079">
        <ele>183</ele>
        <time>2019-11-17T14:06:05+01:00</time>
      </trkpt>
      <trkpt lat="43.56458" lon="5.33084">
        <ele>184</ele>
        <time>2019-11-17T14:06:22+01:00</time>
      </trkpt>
      <trkpt lat="43.56481" lon="5.33092">
        <ele>185</ele>
        <time>2019-11-17T14:06:41+01:00</time>
      </trkpt>
      <trkpt lat="43.56502" lon="5.33103">
        <ele>188</ele>
        <time>2019-11-17T14:07:12+01:00</time>
      </trkpt>
      <trkpt lat="43.56525" lon="5.33112">
        <ele>189</ele>
        <time>2019-11-17T14:07:36+01:00</time>
      </trkpt>
      <trkpt lat="43.56547" lon="5.33108">
        <ele>190</ele>
        <time>2019-11-17T14:07:56+01:00</time>
      </trkpt>
      <trkpt lat="43.5657" lon="5.33104">
        <ele>191</ele>
        <time>2019-11-17T14:08:22+01:00</time>
      </trkpt>
      <trkpt lat="43.56593" lon="5.33099">
        <ele>193</ele>
        <time>2019-11-17T14:08:38+01:00</time>
      </trkpt>
      <trkpt lat="43.56616" lon="5.3309">
        <ele>193</ele>
        <time>2019-11-17T14:09:04+01:00</time>
      </trkpt>
      <trkpt lat="43.56636" lon="5.33076">
        <ele>193</ele>
        <time>2019-11-17T14:10:11+01:00</time>
      </trkpt>
      <trkpt lat="43.56657" lon="5.33061">
        <ele>193</ele>
        <time>2019-11-17T14:10:32+01:00</time>
      </trkpt>
      <trkpt lat="43.56677" lon="5.33046">
        <ele>196</ele>
        <time>2019-11-17T14:10:54+01:00</time>
      </trkpt>
      <trkpt lat="43.56698" lon="5.33031">
        <ele>196</ele>
        <time>2019-11-17T14:11:15+01:00</time>
      </trkpt>
      <trkpt lat="43.56717" lon="5.33047">
        <ele>197</ele>
        <time>2019-11-17T14:13:50+01:00</time>
      </trkpt>
      <trkpt lat="43.56721" lon="5.33078">
        <ele>197</ele>
        <time>2019-11-17T14:14:45+01:00</time>
      </trkpt>
      <trkpt lat="43.56722" lon="5.3311">
        <ele>195</ele>
        <time>2019-11-17T14:15:11+01:00</time>
      </trkpt>
      <trkpt lat="43.56717" lon="5.33141">
        <ele>195</ele>
        <time>2019-11-17T14:16:20+01:00</time>
      </trkpt>
      <trkpt lat="43.56709" lon="5.3317">
        <ele>193</ele>
        <time>2019-11-17T14:16:40+01:00</time>
      </trkpt>
      <trkpt lat="43.56704" lon="5.332">
        <ele>193</ele>
        <time>2019-11-17T14:17:01+01:00</time>
      </trkpt>
      <trkpt lat="43.56701" lon="5.33232">
        <ele>193</ele>
        <time>2019-11-17T14:17:21+01:00</time>
      </trkpt>
      <trkpt lat="43.56699" lon="5.33263">
        <ele>192</ele>
        <time>2019-11-17T14:17:38+01:00</time>
      </trkpt>
      <trkpt lat="43.56695" lon="5.33294">
        <ele>192</ele>
        <time>2019-11-17T14:17:56+01:00</time>
      </trkpt>
      <trkpt lat="43.56692" lon="5.33326">
        <ele>191</ele>
        <time>2019-11-17T14:18:15+01:00</time>
      </trkpt>
      <trkpt lat="43.56687" lon="5.33357">
        <ele>191</ele>
        <time>2019-11-17T14:18:34+01:00</time>
      </trkpt>
      <trkpt lat="43.56686" lon="5.33389">
        <ele>190</ele>
        <time>2019-11-17T14:18:53+01:00</time>
      </trkpt>
      <trkpt lat="43.56683" lon="5.33422">
        <ele>190</ele>
        <time>2019-11-17T14:19:13+01:00</time>
      </trkpt>
      <trkpt lat="43.56681" lon="5.33454">
        <ele>191</ele>
        <time>2019-11-17T14:19:35+01:00</time>
      </trkpt>
      <trkpt lat="43.56679" lon="5.33486">
        <ele>190</ele>
        <time>2019-11-17T14:19:54+01:00</time>
      </trkpt>
      <trkpt lat="43.56679" lon="5.33519">
        <ele>192</ele>
        <time>2019-11-17T14:20:14+01:00</time>
      </trkpt>
      <trkpt lat="43.56679" lon="5.33551">
        <ele>194</ele>
        <time>2019-11-17T14:20:33+01:00</time>
      </trkpt>
      <trkpt lat="43.56681" lon="5.33584">
        <ele>195</ele>
        <time>2019-11-17T14:20:55+01:00</time>
      </trkpt>
      <trkpt lat="43.56681" lon="5.33615">
        <ele>199</ele>
        <time>2019-11-17T14:21:15+01:00</time>
      </trkpt>
      <trkpt lat="43.56679" lon="5.33648">
        <ele>199</ele>
        <time>2019-11-17T14:21:34+01:00</time>
      </trkpt>
      <trkpt lat="43.56679" lon="5.33679">
        <ele>202</ele>
        <time>2019-11-17T14:21:54+01:00</time>
      </trkpt>
      <trkpt lat="43.56665" lon="5.33705">
        <ele>193</ele>
        <time>2019-11-17T14:22:21+01:00</time>
      </trkpt>
      <trkpt lat="43.56671" lon="5.33736">
        <ele>205</ele>
        <time>2019-11-17T14:22:50+01:00</time>
      </trkpt>
      <trkpt lat="43.5667" lon="5.33769">
        <ele>208</ele>
        <time>2019-11-17T14:23:24+01:00</time>
      </trkpt>
      <trkpt lat="43.56667" lon="5.338">
        <ele>210</ele>
        <time>2019-11-17T14:23:57+01:00</time>
      </trkpt>
      <trkpt lat="43.56659" lon="5.33829">
        <ele>202</ele>
        <time>2019-11-17T14:24:42+01:00</time>
      </trkpt>
      <trkpt lat="43.56669" lon="5.33857">
        <ele>210</ele>
        <time>2019-11-17T14:25:41+01:00</time>
      </trkpt>
      <trkpt lat="43.56684" lon="5.3388">
        <ele>211</ele>
        <time>2019-11-17T14:26:21+01:00</time>
      </trkpt>
      <trkpt lat="43.56705" lon="5.33895">
        <ele>212</ele>
        <time>2019-11-17T14:26:49+01:00</time>
      </trkpt>
      <trkpt lat="43.56725" lon="5.33908">
        <ele>213</ele>
        <time>2019-11-17T14:27:15+01:00</time>
      </trkpt>
      <trkpt lat="43.56748" lon="5.33905">
        <ele>213</ele>
        <time>2019-11-17T14:27:59+01:00</time>
      </trkpt>
      <trkpt lat="43.56771" lon="5.33905">
        <ele>216</ele>
        <time>2019-11-17T14:28:24+01:00</time>
      </trkpt>
      <trkpt lat="43.56794" lon="5.33903">
        <ele>216</ele>
        <time>2019-11-17T14:28:52+01:00</time>
      </trkpt>
      <trkpt lat="43.56817" lon="5.33905">
        <ele>215</ele>
        <time>2019-11-17T14:29:18+01:00</time>
      </trkpt>
      <trkpt lat="43.5684" lon="5.339">
        <ele>214</ele>
        <time>2019-11-17T14:29:57+01:00</time>
      </trkpt>
      <trkpt lat="43.56862" lon="5.33901">
        <ele>215</ele>
        <time>2019-11-17T14:30:23+01:00</time>
      </trkpt>
      <trkpt lat="43.56884" lon="5.33908">
        <ele>214</ele>
        <time>2019-11-17T14:31:21+01:00</time>
      </trkpt>
      <trkpt lat="43.56904" lon="5.33923">
        <ele>208</ele>
        <time>2019-11-17T14:31:53+01:00</time>
      </trkpt>
      <trkpt lat="43.56907" lon="5.33954">
        <ele>206</ele>
        <time>2019-11-17T14:32:22+01:00</time>
      </trkpt>
      <trkpt lat="43.56913" lon="5.33985">
        <ele>203</ele>
        <time>2019-11-17T14:32:52+01:00</time>
      </trkpt>
      <trkpt lat="43.56915" lon="5.34016">
        <ele>201</ele>
        <time>2019-11-17T14:33:11+01:00</time>
      </trkpt>
      <trkpt lat="43.56921" lon="5.34047">
        <ele>204</ele>
        <time>2019-11-17T14:33:35+01:00</time>
      </trkpt>
      <trkpt lat="43.56915" lon="5.34078">
        <ele>202</ele>
        <time>2019-11-17T14:33:55+01:00</time>
      </trkpt>
      <trkpt lat="43.56912" lon="5.34108">
        <ele>202</ele>
        <time>2019-11-17T14:34:22+01:00</time>
      </trkpt>
      <trkpt lat="43.56899" lon="5.34134">
        <ele>202</ele>
        <time>2019-11-17T14:34:55+01:00</time>
      </trkpt>
      <trkpt lat="43.56884" lon="5.34158">
        <ele>202</ele>
        <time>2019-11-17T14:35:17+01:00</time>
      </trkpt>
      <trkpt lat="43.56872" lon="5.34186">
        <ele>205</ele>
        <time>2019-11-17T14:35:49+01:00</time>
      </trkpt>
      <trkpt lat="43.56857" lon="5.3421">
        <ele>205</ele>
        <time>2019-11-17T14:36:14+01:00</time>
      </trkpt>
      <trkpt lat="43.56846" lon="5.34237">
        <ele>204</ele>
        <time>2019-11-17T14:36:45+01:00</time>
      </trkpt>
      <trkpt lat="43.56834" lon="5.34263">
        <ele>207</ele>
        <time>2019-11-17T14:37:26+01:00</time>
      </trkpt>
      <trkpt lat="43.56818" lon="5.34287">
        <ele>201</ele>
        <time>2019-11-17T14:38:13+01:00</time>
      </trkpt>
      <trkpt lat="43.56811" lon="5.34316">
        <ele>203</ele>
        <time>2019-11-17T14:38:36+01:00</time>
      </trkpt>
      <trkpt lat="43.56801" lon="5.34345">
        <ele>205</ele>
        <time>2019-11-17T14:39:02+01:00</time>
      </trkpt>
      <trkpt lat="43.56789" lon="5.34372">
        <ele>204</ele>
        <time>2019-11-17T14:39:27+01:00</time>
      </trkpt>
      <trkpt lat="43.56777" lon="5.34399">
        <ele>204</ele>
        <time>2019-11-17T14:40:19+01:00</time>
      </trkpt>
      <trkpt lat="43.56774" lon="5.3443">
        <ele>205</ele>
        <time>2019-11-17T14:40:46+01:00</time>
      </trkpt>
      <trkpt lat="43.56774" lon="5.34461">
        <ele>205</ele>
        <time>2019-11-17T14:42:17+01:00</time>
      </trkpt>
      <trkpt lat="43.56785" lon="5.34488">
        <ele>206</ele>
        <time>2019-11-17T14:42:41+01:00</time>
      </trkpt>
      <trkpt lat="43.56791" lon="5.34518">
        <ele>207</ele>
        <time>2019-11-17T14:43:04+01:00</time>
      </trkpt>
      <trkpt lat="43.56799" lon="5.34548">
        <ele>207</ele>
        <time>2019-11-17T14:43:44+01:00</time>
      </trkpt>
      <trkpt lat="43.568" lon="5.34579">
        <ele>207</ele>
        <time>2019-11-17T14:44:11+01:00</time>
      </trkpt>
      <trkpt lat="43.56803" lon="5.34611">
        <ele>207</ele>
        <time>2019-11-17T14:44:34+01:00</time>
      </trkpt>
      <trkpt lat="43.56804" lon="5.34642">
        <ele>207</ele>
        <time>2019-11-17T14:45:10+01:00</time>
      </trkpt>
      <trkpt lat="43.56804" lon="5.34673">
        <ele>209</ele>
        <time>2019-11-17T14:46:16+01:00</time>
      </trkpt>
      <trkpt lat="43.56802" lon="5.34705">
        <ele>209</ele>
        <time>2019-11-17T14:47:08+01:00</time>
      </trkpt>
      <trkpt lat="43.56801" lon="5.34736">
        <ele>210</ele>
        <time>2019-11-17T14:47:39+01:00</time>
      </trkpt>
      <trkpt lat="43.56799" lon="5.34767">
        <ele>215</ele>
        <time>2019-11-17T14:48:03+01:00</time>
      </trkpt>
      <trkpt lat="43.56801" lon="5.34799">
        <ele>216</ele>
        <time>2019-11-17T14:48:30+01:00</time>
      </trkpt>
      <trkpt lat="43.56803" lon="5.34831">
        <ele>217</ele>
        <time>2019-11-17T14:48:57+01:00</time>
      </trkpt>
      <trkpt lat="43.56808" lon="5.34861">
        <ele>223</ele>
        <time>2019-11-17T14:49:21+01:00</time>
      </trkpt>
      <trkpt lat="43.5681" lon="5.34892">
        <ele>224</ele>
        <time>2019-11-17T14:49:59+01:00</time>
      </trkpt>
      <trkpt lat="43.56811" lon="5.34924">
        <ele>228</ele>
        <time>2019-11-17T14:50:33+01:00</time>
      </trkpt>
      <trkpt lat="43.56811" lon="5.34955">
        <ele>230</ele>
        <time>2019-11-17T14:52:03+01:00</time>
      </trkpt>
      <trkpt lat="43.56807" lon="5.34987">
        <ele>231</ele>
        <time>2019-11-17T14:52:32+01:00</time>
      </trkpt>
      <trkpt lat="43.56795" lon="5.35013">
        <ele>235</ele>
        <time>2019-11-17T14:53:00+01:00</time>
      </trkpt>
      <trkpt lat="43.56792" lon="5.35044">
        <ele>236</ele>
        <time>2019-11-17T14:53:24+01:00</time>
      </trkpt>
      <trkpt lat="43.56793" lon="5.35075">
        <ele>237</ele>
        <time>2019-11-17T14:53:48+01:00</time>
      </trkpt>
      <trkpt lat="43.56793" lon="5.35106">
        <ele>241</ele>
        <time>2019-11-17T14:54:20+01:00</time>
      </trkpt>
      <trkpt lat="43.5679" lon="5.35138">
        <ele>241</ele>
        <time>2019-11-17T14:55:07+01:00</time>
      </trkpt>
      <trkpt lat="43.56788" lon="5.35169">
        <ele>245</ele>
        <time>2019-11-17T14:55:45+01:00</time>
      </trkpt>
      <trkpt lat="43.56788" lon="5.352">
        <ele>245</ele>
        <time>2019-11-17T14:56:10+01:00</time>
      </trkpt>
      <trkpt lat="43.56787" lon="5.35233">
        <ele>246</ele>
        <time>2019-11-17T14:57:12+01:00</time>
      </trkpt>
      <trkpt lat="43.56787" lon="5.35264">
        <ele>249</ele>
        <time>2019-11-17T14:57:34+01:00</time>
      </trkpt>
      <trkpt lat="43.56792" lon="5.35295">
        <ele>250</ele>
        <time>2019-11-17T14:57:54+01:00</time>
      </trkpt>
      <trkpt lat="43.56814" lon="5.35303">
        <ele>251</ele>
        <time>2019-11-17T14:58:44+01:00</time>
      </trkpt>
      <trkpt lat="43.56837" lon="5.35306">
        <ele>255</ele>
        <time>2019-11-17T14:59:10+01:00</time>
      </trkpt>
      <trkpt lat="43.5686" lon="5.35309">
        <ele>256</ele>
        <time>2019-11-17T14:59:40+01:00</time>
      </trkpt>
      <trkpt lat="43.56882" lon="5.35318">
        <ele>257</ele>
        <time>2019-11-17T15:00:07+01:00</time>
      </trkpt>
      <trkpt lat="43.56879" lon="5.3535">
        <ele>264</ele>
        <time>2019-11-17T15:01:06+01:00</time>
      </trkpt>
      <trkpt lat="43.56889" lon="5.35322">
        <ele>258</ele>
        <time>2019-11-17T15:01:56+01:00</time>
      </trkpt>
      <trkpt lat="43.56907" lon="5.35342">
        <ele>265</ele>
        <time>2019-11-17T15:02:48+01:00</time>
      </trkpt>
      <trkpt lat="43.56926" lon="5.3536">
        <ele>272</ele>
        <time>2019-11-17T15:03:06+01:00</time>
      </trkpt>
      <trkpt lat="43.56946" lon="5.35374">
        <ele>275</ele>
        <time>2019-11-17T15:04:03+01:00</time>
      </trkpt>
      <trkpt lat="43.56923" lon="5.3537">
        <ele>273</ele>
        <time>2019-11-17T15:04:42+01:00</time>
      </trkpt>
      <trkpt lat="43.56902" lon="5.35381">
        <ele>268</ele>
        <time>2019-11-17T15:05:10+01:00</time>
      </trkpt>
      <trkpt lat="43.5688" lon="5.35389">
        <ele>267</ele>
        <time>2019-11-17T15:06:54+01:00</time>
      </trkpt>
      <trkpt lat="43.56842" lon="5.35414">
        <ele>265</ele>
        <time>2019-11-17T15:08:50+01:00</time>
      </trkpt>
      <trkpt lat="43.56848" lon="5.35447">
        <ele>271</ele>
        <time>2019-11-17T15:10:49+01:00</time>
      </trkpt>
      <trkpt lat="43.5687" lon="5.35453">
        <ele>273</ele>
        <time>2019-11-17T15:14:44+01:00</time>
      </trkpt>
      <trkpt lat="43.56893" lon="5.35446">
        <ele>275</ele>
        <time>2019-11-17T15:15:20+01:00</time>
      </trkpt>
      <trkpt lat="43.56914" lon="5.35435">
        <ele>276</ele>
        <time>2019-11-17T15:15:40+01:00</time>
      </trkpt>
      <trkpt lat="43.56936" lon="5.35425">
        <ele>280</ele>
        <time>2019-11-17T15:16:09+01:00</time>
      </trkpt>
      <trkpt lat="43.56956" lon="5.35409">
        <ele>277</ele>
        <time>2019-11-17T15:17:21+01:00</time>
      </trkpt>
      <trkpt lat="43.56964" lon="5.35379">
        <ele>276</ele>
        <time>2019-11-17T15:17:47+01:00</time>
      </trkpt>
      <trkpt lat="43.5698" lon="5.35357">
        <ele>276</ele>
        <time>2019-11-17T15:18:17+01:00</time>
      </trkpt>
      <trkpt lat="43.56998" lon="5.35337">
        <ele>277</ele>
        <time>2019-11-17T15:18:59+01:00</time>
      </trkpt>
      <trkpt lat="43.57021" lon="5.35335">
        <ele>280</ele>
        <time>2019-11-17T15:19:48+01:00</time>
      </trkpt>
      <trkpt lat="43.57044" lon="5.35336">
        <ele>282</ele>
        <time>2019-11-17T15:20:17+01:00</time>
      </trkpt>
      <trkpt lat="43.57066" lon="5.35329">
        <ele>281</ele>
        <time>2019-11-17T15:20:39+01:00</time>
      </trkpt>
      <trkpt lat="43.5709" lon="5.35332">
        <ele>284</ele>
        <time>2019-11-17T15:20:57+01:00</time>
      </trkpt>
      <trkpt lat="43.57108" lon="5.35314">
        <ele>283</ele>
        <time>2019-11-17T15:21:34+01:00</time>
      </trkpt>
      <trkpt lat="43.57127" lon="5.35331">
        <ele>284</ele>
        <time>2019-11-17T15:22:28+01:00</time>
      </trkpt>
      <trkpt lat="43.57147" lon="5.35344">
        <ele>285</ele>
        <time>2019-11-17T15:23:20+01:00</time>
      </trkpt>
      <trkpt lat="43.57171" lon="5.35344">
        <ele>285</ele>
        <time>2019-11-17T15:24:04+01:00</time>
      </trkpt>
      <trkpt lat="43.57194" lon="5.35346">
        <ele>286</ele>
        <time>2019-11-17T15:24:27+01:00</time>
      </trkpt>
      <trkpt lat="43.57217" lon="5.35345">
        <ele>286</ele>
        <time>2019-11-17T15:24:53+01:00</time>
      </trkpt>
      <trkpt lat="43.5724" lon="5.35343">
        <ele>286</ele>
        <time>2019-11-17T15:25:18+01:00</time>
      </trkpt>
      <trkpt lat="43.57263" lon="5.35341">
        <ele>287</ele>
        <time>2019-11-17T15:25:39+01:00</time>
      </trkpt>
      <trkpt lat="43.57286" lon="5.35338">
        <ele>287</ele>
        <time>2019-11-17T15:25:55+01:00</time>
      </trkpt>
      <trkpt lat="43.57308" lon="5.35331">
        <ele>284</ele>
        <time>2019-11-17T15:26:22+01:00</time>
      </trkpt>
    </trkseg>
  </trk>
</gpx>